Time;durP1;ratioP1;P1;durP2;ratioP2;P2;SDS_P1;SDS_P2;PMS_P1;PMS_P2;Temp;Humidity;BMP_temperature;BMP_pressure;BME280_temperature;BME280_humidity;BME280_pressure;Samples;Min_cycle;Max_cycle;Signal;HPM_P1;HPM_P2
2024/01/06 00:00:52;;;;;;;30.30;20.60;;;;;;;0.51;100.00;99579.40;109898;1265;22188;-75
2024/01/06 00:03:43;;;;;;;28.50;20.70;;;;;;;0.50;100.00;99575.98;110037;1266;21987;-77
2024/01/06 00:06:14;;;;;;;26.40;19.70;;;;;;;0.50;100.00;99577.17;110046;1266;22003;-75
2024/01/06 00:08:53;;;;;;;32.00;20.00;;;;;;;0.52;100.00;99579.74;110522;1259;23477;-76
2024/01/06 00:11:38;;;;;;;27.90;19.30;;;;;;;0.52;100.00;99582.12;110576;1259;23589;-76
2024/01/06 00:14:23;;;;;;;27.30;19.50;;;;;;;0.53;100.00;99582.45;110448;1260;21966;-77
2024/01/06 00:17:15;;;;;;;28.00;19.50;;;;;;;0.52;100.00;99580.58;110222;1265;21997;-76
2024/01/06 00:20:02;;;;;;;32.00;20.50;;;;;;;0.52;100.00;99579.89;110517;1260;22002;-77
2024/01/06 00:22:42;;;;;;;29.90;19.40;;;;;;;0.51;100.00;99581.80;110584;1260;21984;-77
2024/01/06 00:25:45;;;;;;;27.10;19.40;;;;;;;0.45;100.00;99569.36;110517;1260;21970;-78
2024/01/06 00:28:21;;;;;;;28.60;20.00;;;;;;;0.48;100.00;99584.90;110557;1260;21999;-76
2024/01/06 00:30:50;;;;;;;27.60;20.50;;;;;;;0.47;100.00;99585.77;110588;1248;21969;-75
2024/01/06 00:33:28;;;;;;;25.70;20.40;;;;;;;0.46;100.00;99586.45;110569;1260;23602;-76
2024/01/06 00:36:12;;;;;;;31.00;19.40;;;;;;;0.44;100.00;99579.11;110929;1255;23692;-76
2024/01/06 00:38:57;;;;;;;26.90;19.50;;;;;;;0.47;100.00;99574.98;110952;1255;21959;-76
2024/01/06 00:41:40;;;;;;;32.80;21.10;;;;;;;0.53;100.00;99585.03;110941;1254;22011;-77
2024/01/06 00:44:17;;;;;;;30.60;20.50;;;;;;;0.57;100.00;99594.23;110605;1259;23728;-76
2024/01/06 00:46:59;;;;;;;27.50;20.20;;;;;;;0.59;100.00;99599.54;110682;1260;22995;-76
2024/01/06 00:49:45;;;;;;;24.70;19.10;;;;;;;0.59;100.00;99606.72;110692;1260;22322;-76
2024/01/06 00:52:24;;;;;;;27.60;19.60;;;;;;;0.58;100.00;99612.20;110078;1265;23640;-77
2024/01/06 00:55:16;;;;;;;27.00;19.90;;;;;;;0.55;100.00;99613.61;110223;1266;22241;-76
2024/01/06 00:58:18;;;;;;;28.60;19.40;;;;;;;0.52;100.00;99610.21;110265;1264;21973;-77
2024/01/06 01:01:04;;;;;;;26.60;19.30;;;;;;;0.52;100.00;99607.98;109848;1270;21977;-77
2024/01/06 01:03:36;;;;;;;27.40;18.90;;;;;;;0.54;100.00;99605.73;109453;1270;22163;-76
2024/01/06 01:06:14;;;;;;;25.50;19.50;;;;;;;0.54;100.00;99604.36;109659;1270;21976;-76
2024/01/06 01:08:56;;;;;;;25.90;19.00;;;;;;;0.52;100.00;99608.66;109518;1265;21957;-77
2024/01/06 01:11:53;;;;;;;28.20;19.60;;;;;;;0.50;100.00;99614.34;110543;1260;24124;-77
2024/01/06 01:14:29;;;;;;;28.90;20.20;;;;;;;0.51;100.00;99612.27;110722;1260;21974;-77
2024/01/06 01:17:06;;;;;;;28.20;20.50;;;;;;;0.54;100.00;99611.90;110435;1260;23973;-77
2024/01/06 01:19:44;;;;;;;24.60;17.80;;;;;;;0.53;100.00;99614.15;110736;1255;22032;-76
2024/01/06 01:22:40;;;;;;;28.90;19.60;;;;;;;0.50;100.00;99605.43;110954;1255;22327;-76
2024/01/06 01:25:24;;;;;;;25.00;18.20;;;;;;;0.46;100.00;99604.27;111055;1254;23014;-77
2024/01/06 01:28:19;;;;;;;26.40;18.60;;;;;;;0.44;100.00;99610.09;111109;1255;23726;-77
2024/01/06 01:31:17;;;;;;;25.20;19.70;;;;;;;0.42;100.00;99613.71;111009;1255;22006;-77
2024/01/06 01:33:50;;;;;;;26.10;18.60;;;;;;;0.41;100.00;99617.48;111058;1255;21960;-77
2024/01/06 01:36:36;;;;;;;24.80;18.40;;;;;;;0.39;100.00;99613.39;110832;1255;21975;-77
2024/01/06 01:39:18;;;;;;;26.20;17.60;;;;;;;0.37;100.00;99611.52;110866;1254;21959;-76
2024/01/06 01:42:15;;;;;;;24.10;18.30;;;;;;;0.35;100.00;99608.63;110633;1259;23051;-77
2024/01/06 01:45:03;;;;;;;27.70;19.20;;;;;;;0.37;100.00;99608.78;110646;1260;23066;-76
2024/01/06 01:47:56;;;;;;;25.80;19.10;;;;;;;0.42;100.00;99613.36;109737;1268;23640;-77
2024/01/06 01:50:46;;;;;;;25.00;18.70;;;;;;;0.47;100.00;99614.00;109721;1268;21977;-77
2024/01/06 01:53:24;;;;;;;27.20;18.60;;;;;;;0.54;100.00;99617.20;109336;1272;23812;-75
2024/01/06 01:55:54;;;;;;;25.60;18.10;;;;;;;0.58;100.00;99620.95;108801;1278;21987;-75
2024/01/06 01:58:41;;;;;;;26.70;18.80;;;;;;;0.61;100.00;99622.63;108799;1277;23741;-75
2024/01/06 02:01:19;;;;;;;24.20;17.50;;;;;;;0.63;100.00;99614.73;109085;1270;23598;-75
2024/01/06 02:04:04;;;;;;;22.80;16.60;;;;;;;0.63;100.00;99606.70;109422;1264;22021;-75
2024/01/06 02:06:42;;;;;;;25.30;18.50;;;;;;;0.60;100.00;99602.77;109870;1265;23072;-76
2024/01/06 02:09:29;;;;;;;25.00;19.30;;;;;;;0.58;100.00;99590.80;110057;1265;23709;-76
2024/01/06 02:12:11;;;;;;;27.90;20.20;;;;;;;0.53;100.00;99592.39;109659;1264;21968;-75
2024/01/06 02:14:47;;;;;;;29.40;20.60;;;;;;;0.49;100.00;99594.15;110307;1263;23119;-76
2024/01/06 02:17:32;;;;;;;25.30;19.60;;;;;;;0.43;100.00;99585.80;110324;1263;21992;-76
2024/01/06 02:20:16;;;;;;;25.70;20.00;;;;;;;0.48;100.00;99597.06;110345;1259;21974;-78
2024/01/06 02:22:54;;;;;;;26.90;19.10;;;;;;;0.50;100.00;99606.64;110580;1259;24116;-76
2024/01/06 02:25:28;;;;;;;;;;;;;;;0.49;100.00;99609.38;110411;1264;21967;-76
2024/01/06 02:28:02;;;;;;;25.30;18.70;;;;;;;0.41;100.00;99608.25;109294;1271;22023;-76
2024/01/06 02:30:36;;;;;;;;;;;;;;;0.39;100.00;99608.95;109477;1268;21959;-74
2024/01/06 02:33:15;;;;;;;22.90;18.20;;;;;;;0.32;100.00;99609.85;109947;1269;21978;-76
2024/01/06 02:35:53;;;;;;;22.60;18.00;;;;;;;0.30;100.00;99601.15;109652;1268;22751;-76
2024/01/06 02:38:39;;;;;;;21.30;16.30;;;;;;;0.28;100.00;99602.88;109044;1274;22215;-77
2024/01/06 02:41:17;;;;;;;23.90;18.10;;;;;;;0.25;100.00;99607.34;109215;1274;22060;-77
2024/01/06 02:44:02;;;;;;;31.60;21.50;;;;;;;0.22;100.00;99603.95;109321;1267;22454;-77
2024/01/06 02:46:52;;;;;;;23.40;19.10;;;;;;;0.16;100.00;99594.92;110468;1261;23020;-75
2024/01/06 02:49:30;;;;;;;28.40;19.80;;;;;;;0.23;100.00;99602.23;110574;1261;23758;-77
2024/01/06 02:52:04;;;;;;;24.80;19.60;;;;;;;0.19;100.00;99595.75;110425;1262;23786;-76
2024/01/06 02:54:39;;;;;;;25.70;18.30;;;;;;;0.19;100.00;99607.39;110526;1261;22967;-76
2024/01/06 02:57:14;;;;;;;26.80;19.40;;;;;;;0.15;100.00;99607.08;110861;1255;23609;-76
2024/01/06 02:59:55;;;;;;;25.90;20.00;;;;;;;0.17;100.00;99606.20;111301;1254;22573;-76
2024/01/06 03:02:36;;;;;;;25.70;21.00;;;;;;;0.17;100.00;99606.20;110995;1254;21963;-77
2024/01/06 03:05:14;;;;;;;23.90;19.90;;;;;;;0.17;100.00;99612.02;110893;1255;23570;-77
2024/01/06 03:07:53;;;;;;;26.10;20.60;;;;;;;0.15;100.00;99613.07;110925;1256;23706;-77
2024/01/06 03:10:31;;;;;;;25.00;19.30;;;;;;;0.13;100.00;99614.11;111229;1255;21960;-75
2024/01/06 03:13:07;;;;;;;24.10;18.80;;;;;;;0.13;100.00;99618.05;110967;1253;21949;-76
2024/01/06 03:15:39;;;;;;;21.40;19.10;;;;;;;0.12;100.00;99610.35;110934;1256;21969;-76
2024/01/06 03:18:14;;;;;;;25.30;18.30;;;;;;;0.13;100.00;99599.05;110969;1256;23644;-75
2024/01/06 03:20:48;;;;;;;28.60;20.10;;;;;;;0.14;100.00;99597.33;110912;1256;23587;-76
2024/01/06 03:23:28;;;;;;;28.00;19.70;;;;;;;0.12;100.00;99594.95;110555;1260;22066;-76
2024/01/06 03:26:12;;;;;;;23.30;18.60;;;;;;;0.09;100.00;99600.11;110498;1260;21972;-76
2024/01/06 03:29:03;;;;;;;23.90;18.80;;;;;;;0.10;100.00;99604.38;110586;1260;22228;-76
2024/01/06 03:31:49;;;;;;;22.20;17.70;;;;;;;0.10;100.00;99605.73;110447;1260;22434;-77
2024/01/06 03:34:26;;;;;;;25.80;19.80;;;;;;;0.13;100.00;99603.50;110573;1260;21977;-76
2024/01/06 03:36:58;;;;;;;25.50;18.80;;;;;;;0.14;100.00;99599.39;110623;1260;21975;-77
2024/01/06 03:39:45;;;;;;;23.40;17.30;;;;;;;0.15;100.00;99601.60;110594;1260;22011;-76
2024/01/06 03:42:30;;;;;;;24.60;19.60;;;;;;;0.16;100.00;99612.20;110276;1262;23623;-76
2024/01/06 03:45:13;;;;;;;23.40;19.20;;;;;;;0.12;100.00;99611.38;110361;1262;23022;-76
2024/01/06 03:48:02;;;;;;;21.60;17.60;;;;;;;0.08;100.00;99610.21;110481;1262;21982;-76
2024/01/06 03:50:39;;;;;;;23.30;18.20;;;;;;;0.08;100.00;99607.98;110396;1262;21980;-75
2024/01/06 03:53:15;;;;;;;21.90;17.90;;;;;;;0.09;100.00;99606.44;110021;1266;21968;-76
2024/01/06 03:55:53;;;;;;;24.90;18.90;;;;;;;0.08;100.00;99607.81;110135;1264;23125;-75
2024/01/06 03:58:31;;;;;;;23.30;18.80;;;;;;;0.09;100.00;99608.15;110088;1265;21997;-76
2024/01/06 04:01:20;;;;;;;22.90;17.20;;;;;;;0.09;100.00;99610.02;110142;1265;22324;-76
2024/01/06 04:04:08;;;;;;;22.30;17.60;;;;;;;0.10;100.00;99613.79;109991;1265;23596;-77
2024/01/06 04:06:51;;;;;;;22.80;17.80;;;;;;;0.09;100.00;99609.35;110166;1260;22736;-74
2024/01/06 04:09:21;;;;;;;21.60;17.40;;;;;;;0.11;100.00;99612.58;110584;1260;23887;-75
2024/01/06 04:11:50;;;;;;;22.50;19.00;;;;;;;0.15;100.00;99618.38;110619;1260;23025;-75
2024/01/06 04:14:22;;;;;;;22.50;19.20;;;;;;;0.09;100.00;99605.23;110238;1265;22065;-76
2024/01/06 04:16:56;;;;;;;22.50;19.30;;;;;;;0.10;100.00;99600.61;109691;1268;23003;-76
2024/01/06 04:19:39;;;;;;;24.90;19.10;;;;;;;0.18;100.00;99613.38;110252;1265;23523;-75
2024/01/06 04:22:14;;;;;;;20.80;18.50;;;;;;;0.20;100.00;99614.40;110102;1265;21985;-76
2024/01/06 04:24:51;;;;;;;24.20;18.00;;;;;;;0.21;100.00;99610.28;110290;1264;21981;-77
2024/01/06 04:27:23;;;;;;;22.70;18.10;;;;;;;0.21;100.00;99609.09;109664;1269;21978;-75
2024/01/06 04:29:58;;;;;;;22.90;19.70;;;;;;;0.18;100.00;99611.00;109539;1269;23727;-77
2024/01/06 04:32:28;;;;;;;21.70;18.80;;;;;;;0.15;100.00;99611.36;109457;1270;23601;-75
2024/01/06 04:35:00;;;;;;;25.90;21.00;;;;;;;0.13;100.00;99614.10;109755;1265;22437;-75
2024/01/06 04:37:40;;;;;;;22.30;18.50;;;;;;;0.11;100.00;99618.05;109635;1270;22004;-76
2024/01/06 04:40:13;;;;;;;25.10;20.80;;;;;;;0.09;100.00;99625.60;109374;1270;21985;-75
2024/01/06 04:43:01;;;;;;;24.90;20.50;;;;;;;0.06;100.00;99632.11;109561;1270;23650;-75
2024/01/06 04:45:42;;;;;;;24.50;20.10;;;;;;;0.06;100.00;99636.57;109602;1266;23033;-75
2024/01/06 04:48:16;;;;;;;28.80;22.00;;;;;;;0.05;100.00;99641.19;109767;1266;21970;-75
2024/01/06 04:51:04;;;;;;;22.90;20.30;;;;;;;0.06;100.00;99644.79;110312;1260;22533;-76
2024/01/06 04:53:48;;;;;;;27.10;22.40;;;;;;;0.08;100.00;99646.99;110582;1260;23702;-77
2024/01/06 04:56:21;;;;;;;;;;;;;;;0.11;100.00;99640.11;110813;1255;22701;-75
2024/01/06 04:59:08;;;;;;;23.40;20.90;;;;;;;-0.07;100.00;99622.80;111171;1255;21964;-76
2024/01/06 05:01:51;;;;;;;26.70;22.30;;;;;;;0.03;100.00;99640.00;111130;1255;23613;-76
2024/01/06 05:04:35;;;;;;;25.80;22.80;;;;;;;0.03;100.00;99640.19;110676;1256;23068;-77
2024/01/06 05:07:18;;;;;;;27.90;24.90;;;;;;;0.02;100.00;99649.25;110602;1260;23597;-76
2024/01/06 05:09:53;;;;;;;29.80;25.60;;;;;;;0.01;100.00;99649.27;110442;1260;21937;-76
2024/01/06 05:12:29;;;;;;;30.30;26.40;;;;;;;0.01;100.00;99645.84;110574;1260;22112;-76
2024/01/06 05:15:03;;;;;;;31.50;27.00;;;;;;;0.04;100.00;99645.64;110610;1260;21964;-75
2024/01/06 05:17:36;;;;;;;28.00;25.10;;;;;;;0.06;100.00;99643.92;110567;1260;22967;-76
2024/01/06 05:20:07;;;;;;;32.00;28.60;;;;;;;0.10;100.00;99639.96;110054;1265;22745;-76
2024/01/06 05:22:42;;;;;;;32.30;27.60;;;;;;;0.11;100.00;99641.85;109944;1265;22011;-75
2024/01/06 05:25:21;;;;;;;38.20;32.80;;;;;;;0.11;100.00;99644.23;110293;1265;22254;-75
2024/01/06 05:28:01;;;;;;;38.10;32.20;;;;;;;0.10;100.00;99643.05;109980;1265;21978;-76
2024/01/06 05:30:31;;;;;;;37.10;32.40;;;;;;;0.11;100.00;99636.36;109942;1266;21972;-76
2024/01/06 05:33:04;;;;;;;34.70;29.90;;;;;;;0.12;100.00;99643.72;110301;1261;23621;-76
2024/01/06 05:36:06;;;;;;;33.90;30.20;;;;;;;0.10;100.00;99651.60;110097;1261;23618;-77
2024/01/06 05:38:53;;;;;;;36.30;32.30;;;;;;;0.06;100.00;99655.23;110637;1256;23720;-77
2024/01/06 05:41:49;;;;;;;39.20;32.40;;;;;;;0.03;100.00;99655.92;110349;1261;23596;-77
2024/01/06 05:44:28;;;;;;;38.30;33.00;;;;;;;0.05;100.00;99662.91;110432;1261;21971;-78
2024/01/06 05:47:01;;;;;;;40.20;34.70;;;;;;;0.06;100.00;99669.06;110621;1260;22030;-76
2024/01/06 05:49:44;;;;;;;41.00;36.30;;;;;;;0.07;100.00;99670.59;110419;1261;23545;-77
2024/01/06 05:52:25;;;;;;;43.20;37.10;;;;;;;0.08;100.00;99677.45;110502;1261;22481;-76
2024/01/06 05:55:09;;;;;;;37.80;33.80;;;;;;;0.11;100.00;99683.08;110016;1260;21999;-77
2024/01/06 05:58:00;;;;;;;38.90;34.80;;;;;;;0.13;100.00;99697.61;109927;1266;21982;-78
2024/01/06 06:00:33;;;;;;;42.20;37.10;;;;;;;0.13;100.00;99703.95;110406;1261;22973;-76
2024/01/06 06:03:07;;;;;;;41.30;35.10;;;;;;;0.13;100.00;99705.46;110488;1262;23698;-76
2024/01/06 06:05:39;;;;;;;40.00;35.60;;;;;;;0.12;100.00;99706.67;110423;1261;21958;-76
2024/01/06 06:08:08;;;;;;;39.80;34.90;;;;;;;0.10;100.00;99710.79;110387;1261;22769;-75
2024/01/06 06:10:51;;;;;;;42.40;36.70;;;;;;;0.09;100.00;99714.91;110583;1261;21973;-75
2024/01/06 06:13:21;;;;;;;38.70;34.40;;;;;;;0.10;100.00;99723.64;110563;1261;22029;-76
2024/01/06 06:15:58;;;;;;;42.60;36.00;;;;;;;0.11;100.00;99727.23;110591;1252;23139;-76
2024/01/06 06:18:35;;;;;;;43.60;33.60;;;;;;;0.10;100.00;99724.49;110572;1261;22928;-76
2024/01/06 06:21:22;;;;;;;43.50;36.20;;;;;;;0.12;100.00;99725.85;111213;1256;23578;-76
2024/01/06 06:23:53;;;;;;;41.70;34.00;;;;;;;0.15;100.00;99725.66;111023;1256;23593;-76
2024/01/06 06:26:33;;;;;;;40.30;34.90;;;;;;;0.13;100.00;99722.77;110940;1251;23046;-78
2024/01/06 06:29:09;;;;;;;40.90;32.60;;;;;;;0.17;100.00;99737.11;110574;1259;22245;-76
2024/01/06 06:31:44;;;;;;;34.90;31.00;;;;;;;0.18;100.00;99739.85;110687;1259;21978;-76
2024/01/06 06:34:20;;;;;;;36.40;30.90;;;;;;;0.18;100.00;99741.55;110680;1256;21991;-76
2024/01/06 06:37:05;;;;;;;;;;;;;;;;;;;;;
2024/01/06 06:39:38;;;;;;;37.70;31.90;;;;;;;0.18;100.00;99741.21;110755;1259;23627;-76
2024/01/06 06:42:40;;;;;;;32.30;28.90;;;;;;;0.18;100.00;99747.38;110307;1259;22003;-76
2024/01/06 06:45:13;;;;;;;32.90;28.80;;;;;;;0.15;100.00;99750.98;110673;1259;21962;-76
2024/01/06 06:47:45;;;;;;;34.30;28.60;;;;;;;0.14;100.00;99754.75;110781;1256;23798;-77
2024/01/06 06:50:14;;;;;;;34.40;30.50;;;;;;;0.15;100.00;99755.60;110997;1256;23656;-77
2024/01/06 06:52:50;;;;;;;34.30;30.40;;;;;;;0.17;100.00;99755.76;110987;1256;23615;-77
2024/01/06 06:55:28;;;;;;;39.90;33.80;;;;;;;0.18;100.00;99753.53;110860;1256;23615;-77
2024/01/06 06:58:00;;;;;;;33.50;29.50;;;;;;;0.19;100.00;99756.27;110843;1256;21948;-77
2024/01/06 07:00:31;;;;;;;35.10;30.00;;;;;;;0.18;100.00;99758.14;111058;1256;22030;-76
2024/01/06 07:03:06;;;;;;;35.30;31.10;;;;;;;0.15;100.00;99755.25;111012;1256;22054;-77
2024/01/06 07:05:39;;;;;;;37.50;31.50;;;;;;;0.14;100.00;99756.98;110419;1262;23035;-78
2024/01/06 07:08:09;;;;;;;36.70;31.70;;;;;;;0.14;100.00;99757.48;110250;1262;22032;-78
2024/01/06 07:10:43;;;;;;;36.20;32.30;;;;;;;0.11;100.00;99756.30;110493;1262;21972;-78
2024/01/06 07:13:18;;;;;;;37.10;33.10;;;;;;;0.11;100.00;99767.08;110605;1260;22001;-78
2024/01/06 07:16:00;;;;;;;38.40;32.60;;;;;;;0.10;100.00;99776.48;110452;1255;22005;-77
2024/01/06 07:18:46;;;;;;;38.10;32.90;;;;;;;0.07;100.00;99781.65;110401;1262;21973;-76
2024/01/06 07:21:37;;;;;;;35.90;30.90;;;;;;;0.06;100.00;99780.79;110077;1262;22064;-78
2024/01/06 07:30:25;;;;;;;;;;;;;;;;;;;;;
2024/01/06 07:34:25;;;;;;;37.20;31.80;;;;;;;0.05;100.00;99794.48;109562;1271;22036;-78
2024/01/06 07:37:52;;;;;;;40.20;31.60;;;;;;;0.04;100.00;99793.80;109468;1271;23601;-78
2024/01/06 07:40:44;;;;;;;46.70;35.40;;;;;;;0.03;100.00;99792.27;109411;1263;21974;-76
2024/01/06 07:47:55;;;;;;;43.30;35.20;;;;;;;-0.01;100.00;99792.11;108487;1285;22786;-76
2024/01/06 07:50:44;;;;;;;41.30;33.20;;;;;;;-0.02;100.00;99796.22;107728;1290;22005;-77
2024/01/06 07:53:29;;;;;;;39.70;33.60;;;;;;;0.07;100.00;99819.61;107832;1285;23024;-77
2024/01/06 07:56:17;;;;;;;43.70;35.70;;;;;;;0.08;100.00;99823.04;107656;1290;22519;-78
2024/01/06 07:59:53;;;;;;;37.50;33.10;;;;;;;0.07;100.00;99826.64;107975;1290;22194;-76
2024/01/06 08:04:04;;;;;;;;;;;;;;;;;;;;;
2024/01/06 08:07:51;;;;;;;32.40;28.50;;;;;;;0.06;100.00;99835.36;108736;1280;22071;-76
2024/01/06 08:10:08;;;;;;;37.60;30.30;;;;;;;0.06;100.00;99839.98;108599;1280;22785;-78
2024/01/06 08:13:52;;;;;;;36.30;31.10;;;;;;;0.04;100.00;99845.13;109072;1275;22006;-76
2024/01/06 08:17:47;;;;;;;;;;;;;;;;;;;;;
2024/01/06 08:21:22;;;;;;;35.80;30.50;;;;;;;-0.05;100.00;99847.89;109140;1272;21982;-76
2024/01/06 08:25:35;;;;;;;37.50;30.20;;;;;;;-0.03;100.00;99846.00;108902;1274;22072;-77
2024/01/06 08:29:35;;;;;;;;;;;;;;;;;;;;;
2024/01/06 08:33:09;;;;;;;;;;;;;;;;;;;;;
2024/01/06 08:36:25;;;;;;;40.10;32.30;;;;;;;-0.03;100.00;99853.19;107778;1291;21999;-76
2024/01/06 08:39:56;;;;;;;;;;;;;;;;;;;;;
2024/01/06 08:42:52;;;;;;;48.50;36.70;;;;;;;0.19;100.00;99862.53;109237;1275;22183;-77
2024/01/06 08:45:41;;;;;;;38.80;33.60;;;;;;;0.15;100.00;99873.32;109101;1266;22003;-76
2024/01/06 08:49:00;;;;;;;39.30;32.50;;;;;;;0.09;100.00;99878.64;108567;1281;22000;-76
2024/01/06 08:56:30;;;;;;;41.20;32.10;;;;;;;-0.02;100.00;99886.71;107633;1293;22047;-76
2024/01/06 09:00:19;;;;;;;;;;;;;;;;;;;;;
2024/01/06 09:04:37;;;;;;;43.00;35.00;;;;;;;-0.13;100.00;99886.73;108233;1284;22013;-75
2024/01/06 09:08:09;;;;;;;39.30;31.80;;;;;;;-0.12;100.00;99894.27;107804;1292;22009;-77
2024/01/06 09:10:56;;;;;;;39.50;31.40;;;;;;;-0.03;100.00;99899.20;107213;1295;22115;-76
2024/01/06 09:24:58;;;;;;;43.70;39.20;;;;;;;1.57;100.00;99901.06;108260;1283;548279;-76
2024/01/06 09:28:21;;;;;;;;;;;;;;;;;;;;;
2024/01/06 09:32:25;;;;;;;40.60;34.70;;;;;;;1.08;100.00;99900.13;109445;1271;21995;-76
2024/01/06 09:35:38;;;;;;;39.00;31.70;;;;;;;0.79;100.00;99911.59;110664;1259;22190;-77
2024/01/06 09:39:19;;;;;;;34.90;29.90;;;;;;;0.64;100.00;99914.58;110822;1259;21974;-76
2024/01/06 09:43:10;;;;;;;;;;;;;;;;;;;;;
2024/01/06 09:46:43;;;;;;;35.00;31.20;;;;;;;0.53;100.00;99911.88;111123;1255;22046;-75
2024/01/06 09:50:27;;;;;;;38.10;33.20;;;;;;;0.49;100.00;99922.85;111348;1255;22419;-77
2024/01/06 10:01:45;;;;;;;31.40;28.10;;;;;;;0.31;100.00;99938.48;108580;1283;23783;-76
2024/01/06 10:05:21;;;;;;;32.90;29.30;;;;;;;0.28;100.00;99946.03;108908;1284;23620;-78
2024/01/06 10:07:53;;;;;;;36.90;30.10;;;;;;;0.27;100.00;99945.34;108231;1286;22786;-77
2024/01/06 10:11:13;;;;;;;44.60;33.80;;;;;;;0.24;100.00;99924.46;108235;1282;24155;-78
2024/01/06 10:14:14;;;;;;;38.50;28.90;;;;;;;0.37;100.00;99934.36;108131;1289;22013;-77
2024/01/06 10:17:20;;;;;;;;;;;;;;;;;;;;;
2024/01/06 10:20:25;;;;;;;;;;;;;;;;;;;;;
2024/01/06 10:23:24;;;;;;;37.30;31.80;;;;;;;0.48;100.00;99932.45;107938;1292;22044;-78
2024/01/06 10:26:35;;;;;;;39.30;31.80;;;;;;;0.51;100.00;99936.89;108126;1289;24303;-79
2024/01/06 10:29:17;;;;;;;29.10;25.60;;;;;;;0.53;100.00;99941.16;108449;1284;23007;-79
2024/01/06 10:32:00;;;;;;;33.70;30.00;;;;;;;0.54;100.00;99944.75;108790;1278;22115;-78
2024/01/06 10:34:47;;;;;;;32.00;28.70;;;;;;;0.58;100.00;99952.09;109923;1271;22167;-78
2024/01/06 10:37:50;;;;;;;32.90;29.40;;;;;;;0.59;100.00;99948.52;109879;1265;23585;-78
2024/01/06 10:40:33;;;;;;;35.30;30.50;;;;;;;0.57;100.00;99950.73;110198;1260;22043;-78
2024/01/06 10:43:44;;;;;;;32.50;29.00;;;;;;;0.53;100.00;99948.02;110562;1260;21969;-77
2024/01/06 10:46:25;;;;;;;;;;;;;;;0.51;100.00;99948.02;110536;1260;22028;-77
2024/01/06 10:49:15;;;;;;;31.00;27.60;;;;;;;0.44;100.00;99954.53;110642;1260;23084;-77
2024/01/06 10:52:04;;;;;;;33.50;28.80;;;;;;;0.42;100.00;99955.57;110658;1254;23732;-78
2024/01/06 10:55:00;;;;;;;36.90;32.90;;;;;;;0.43;100.00;99951.81;110968;1254;22048;-79
2024/01/06 10:57:33;;;;;;;35.80;30.30;;;;;;;0.46;100.00;99954.02;111200;1254;21960;-76
2024/01/06 11:01:01;;;;;;;40.40;34.80;;;;;;;0.46;100.00;99954.54;111256;1254;21975;-78
2024/01/06 11:03:55;;;;;;;44.90;33.30;;;;;;;0.48;100.00;99952.64;111406;1254;22571;-77
2024/01/06 11:06:56;;;;;;;32.60;29.00;;;;;;;0.50;100.00;99952.63;111163;1254;23654;-82
2024/01/06 11:10:30;;;;;;;34.40;29.50;;;;;;;0.49;100.00;99952.30;111294;1254;22675;-78
2024/01/06 11:13:36;;;;;;;33.40;26.60;;;;;;;0.46;100.00;99952.14;111120;1254;23684;-78
2024/01/06 11:16:49;;;;;;;33.30;26.80;;;;;;;0.42;100.00;99948.38;110460;1261;22031;-77
2024/01/06 11:19:55;;;;;;;29.90;26.40;;;;;;;0.36;100.00;99943.61;109808;1267;21964;-76
2024/01/06 11:28:13;;;;;;;35.40;27.60;;;;;;;0.28;100.00;99944.48;107191;1299;24578;-77
2024/01/06 11:31:22;;;;;;;31.60;27.60;;;;;;;0.33;100.00;99945.84;106750;1299;23793;-78
2024/01/06 11:34:54;;;;;;;35.30;27.90;;;;;;;0.36;100.00;99942.23;107103;1299;22036;-77
2024/01/06 11:38:11;;;;;;;35.10;27.40;;;;;;;0.26;100.00;99928.41;107181;1295;22814;-78
2024/01/06 11:40:50;;;;;;;39.40;31.10;;;;;;;0.26;100.00;99929.09;107766;1283;21998;-77
2024/01/06 11:43:50;;;;;;;30.60;27.00;;;;;;;0.34;100.00;99944.13;108415;1283;23663;-76
2024/01/06 11:46:49;;;;;;;40.60;32.30;;;;;;;0.31;100.00;99942.41;108421;1283;22050;-77
2024/01/06 11:50:15;;;;;;;42.70;33.20;;;;;;;0.29;100.00;99942.95;108427;1283;22001;-78
2024/01/06 11:53:09;;;;;;;32.60;28.00;;;;;;;0.27;100.00;99944.65;108441;1283;23088;-78
2024/01/06 11:56:11;;;;;;;38.90;29.40;;;;;;;0.24;100.00;99945.69;108408;1283;23727;-77
2024/01/06 11:59:17;;;;;;;36.40;29.30;;;;;;;0.20;100.00;99947.23;108505;1283;22439;-78
2024/01/06 12:02:24;;;;;;;36.90;30.20;;;;;;;0.19;100.00;99948.95;108461;1277;22009;-77
2024/01/06 12:05:44;;;;;;;35.20;29.20;;;;;;;0.18;100.00;99948.10;110792;1254;21961;-77
2024/01/06 12:08:34;;;;;;;27.00;24.10;;;;;;;0.14;100.00;99945.54;111037;1254;22970;-77
2024/01/06 12:11:47;;;;;;;29.10;26.00;;;;;;;0.13;100.00;99942.63;110729;1259;21962;-78
2024/01/06 12:14:32;;;;;;;27.60;24.60;;;;;;;0.15;100.00;99956.15;110664;1259;23872;-76
2024/01/06 12:17:30;;;;;;;;;;;;;;;;;;;;;
2024/01/06 12:20:15;;;;;;;29.10;26.00;;;;;;;0.13;100.00;99959.91;109831;1267;23067;-79
2024/01/06 12:22:56;;;;;;;28.00;24.10;;;;;;;0.14;100.00;99958.89;110079;1267;21962;-79
2024/01/06 12:25:40;;;;;;;30.00;26.60;;;;;;;0.16;100.00;99960.09;110000;1267;22021;-77
2024/01/06 12:28:40;;;;;;;30.30;25.70;;;;;;;0.19;100.00;99965.56;109941;1267;21970;-79
2024/01/06 12:31:27;;;;;;;32.80;27.70;;;;;;;0.17;100.00;99973.26;109923;1267;23043;-77
2024/01/06 12:34:19;;;;;;;37.40;28.00;;;;;;;0.13;100.00;99977.71;109933;1267;21974;-78
2024/01/06 12:37:26;;;;;;;25.80;23.00;;;;;;;0.10;100.00;99972.59;110027;1262;23047;-76
2024/01/06 12:40:10;;;;;;;25.70;23.00;;;;;;;0.08;100.00;99980.28;111219;1254;23545;-77
2024/01/06 12:43:30;;;;;;;;;;;;;;;0.07;100.00;99987.65;110518;1261;23023;-77
2024/01/06 12:46:08;;;;;;;28.20;22.80;;;;;;;-0.03;100.00;99985.59;110422;1261;21978;-77
2024/01/06 12:49:20;;;;;;;25.80;23.10;;;;;;;-0.07;100.00;99987.30;110505;1261;21967;-78
2024/01/06 12:51:58;;;;;;;29.60;25.50;;;;;;;-0.10;100.00;99989.35;110015;1266;21942;-79
2024/01/06 12:54:54;;;;;;;26.90;22.30;;;;;;;-0.10;100.00;99990.91;109537;1273;23041;-78
2024/01/06 12:57:36;;;;;;;29.40;22.80;;;;;;;-0.09;100.00;99994.15;109168;1273;22451;-78
2024/01/06 13:00:38;;;;;;;30.20;25.00;;;;;;;-0.10;100.00;100000.48;109089;1273;23712;-77
2024/01/06 13:03:42;;;;;;;25.70;22.30;;;;;;;-0.10;100.00;100004.77;109424;1273;24405;-78
2024/01/06 13:06:33;;;;;;;29.60;23.70;;;;;;;-0.11;100.00;100016.05;108995;1272;21980;-78
2024/01/06 13:09:16;;;;;;;26.80;23.90;;;;;;;-0.09;100.00;100023.23;110005;1262;21943;-76
2024/01/06 13:12:40;;;;;;;29.20;25.30;;;;;;;-0.06;100.00;100024.42;109971;1268;21982;-79
2024/01/06 13:21:47;;;;;;;32.30;22.30;;;;;;;-0.17;100.00;100030.58;110077;1269;23798;-79
2024/01/06 13:24:15;;;;;;;26.50;22.10;;;;;;;-0.19;100.00;100034.68;109932;1269;25001;-77
2024/01/06 13:26:43;;;;;;;31.00;22.80;;;;;;;-0.17;100.00;100037.25;110421;1262;21980;-76
2024/01/06 13:29:11;;;;;;;37.40;25.50;;;;;;;-0.17;100.00;100038.96;110392;1256;21967;-77
2024/01/06 13:31:39;;;;;;;28.70;23.80;;;;;;;-0.19;100.00;100028.36;110858;1256;22333;-80
2024/01/06 13:34:08;;;;;;;29.80;24.00;;;;;;;-0.14;100.00;100033.33;111008;1256;21960;-77
2024/01/06 13:36:36;;;;;;;26.80;23.80;;;;;;;-0.15;100.00;100033.66;110836;1255;23704;-77
2024/01/06 13:39:04;;;;;;;34.70;26.60;;;;;;;-0.16;100.00;100038.96;110514;1262;23627;-79
2024/01/06 13:41:32;;;;;;;30.80;24.90;;;;;;;-0.18;100.00;100035.70;110488;1262;22038;-78
2024/01/06 13:44:00;;;;;;;33.60;25.50;;;;;;;-0.21;100.00;100039.81;110626;1262;24305;-79
2024/01/06 13:46:28;;;;;;;29.40;25.80;;;;;;;-0.24;100.00;100043.91;109984;1268;22022;-78
2024/01/06 13:48:56;;;;;;;31.40;26.20;;;;;;;-0.24;100.00;100048.70;109760;1268;22185;-79
2024/01/06 13:51:24;;;;;;;33.40;26.80;;;;;;;-0.23;100.00;100049.22;110040;1268;22727;-79
2024/01/06 13:53:52;;;;;;;36.60;28.90;;;;;;;-0.24;100.00;100048.36;110100;1268;22050;-78
2024/01/06 13:56:22;;;;;;;32.80;26.10;;;;;;;-0.25;100.00;100045.63;109739;1262;23073;-77